createdAt,value
2018-03-02T00:00:43.741Z,60.80
2018-03-02T00:01:43.712Z,60.89
2018-03-02T00:02:43.688Z,61.08
2018-03-02T00:03:43.660Z,61.27
2018-03-02T00:04:43.628Z,60.99
2018-03-02T00:05:43.605Z,60.99
2018-03-02T00:06:43.571Z,61.27
2018-03-02T00:07:43.541Z,60.89
2018-03-02T00:08:43.518Z,61.55
2018-03-02T00:09:43.490Z,61.36
2018-03-02T00:10:43.462Z,61.65
2018-03-02T00:11:43.429Z,61.55
2018-03-02T00:12:43.402Z,61.65
2018-03-02T00:13:43.378Z,61.55
2018-03-02T00:14:43.349Z,61.46
2018-03-02T00:15:43.317Z,61.55
2018-03-02T00:16:43.337Z,61.46
2018-03-02T00:17:43.261Z,61.46
2018-03-02T00:18:43.237Z,61.36
2018-03-02T00:19:43.207Z,61.36
2018-03-02T00:20:43.177Z,61.55
2018-03-02T00:21:43.148Z,61.55
2018-03-02T00:22:43.119Z,61.74
2018-03-02T00:23:43.094Z,61.55
2018-03-02T00:24:43.075Z,61.93
2018-03-02T00:25:43.037Z,61.84
2018-03-02T00:26:43.010Z,61.93
2018-03-02T00:27:42.984Z,61.93
2018-03-02T00:28:43.006Z,62.03
2018-03-02T00:29:42.928Z,62.21
2018-03-02T00:30:42.896Z,62.50
2018-03-02T00:31:42.867Z,62.31
2018-03-02T00:32:42.842Z,62.21
2018-03-02T00:33:42.812Z,62.40
2018-03-02T00:34:42.785Z,62.31
2018-03-02T00:35:42.759Z,62.40
2018-03-02T00:36:42.728Z,62.03
2018-03-02T00:37:42.698Z,62.31
2018-03-02T00:38:42.674Z,62.21
2018-03-02T00:39:42.644Z,62.12
2018-03-02T00:40:42.613Z,62.50
2018-03-02T00:41:42.586Z,62.59
2018-03-02T00:42:42.561Z,62.59
2018-03-02T00:43:42.531Z,62.50
2018-03-02T00:44:42.506Z,62.69
2018-03-02T00:45:42.478Z,62.97
2018-03-02T00:46:42.454Z,62.78
2018-03-02T00:47:42.420Z,62.88
2018-03-02T00:48:42.390Z,62.97
2018-03-02T00:49:42.364Z,62.78
2018-03-02T00:50:42.338Z,62.78
2018-03-02T00:51:42.309Z,63.35
2018-03-02T00:52:42.276Z,63.35
2018-03-02T00:53:42.256Z,63.25
2018-03-02T00:54:42.223Z,63.16
2018-03-02T00:55:42.200Z,63.16
2018-03-02T00:56:42.163Z,63.16
2018-03-02T00:57:42.136Z,63.25
2018-03-02T00:58:42.106Z,63.25
2018-03-02T00:59:42.078Z,63.25
2018-03-02T01:00:42.059Z,63.16
2018-03-02T01:01:42.034Z,63.54
2018-03-02T01:02:41.997Z,63.44
2018-03-02T01:03:41.968Z,63.54
2018-03-02T01:04:41.937Z,63.25
2018-03-02T01:05:41.916Z,63.54
2018-03-02T01:06:41.883Z,63.63
2018-03-02T01:07:41.854Z,63.54
2018-03-02T01:08:41.825Z,63.44
2018-03-02T01:09:41.800Z,63.73
2018-03-02T01:10:41.767Z,64.29
2018-03-02T01:11:41.755Z,64.01
2018-03-02T01:12:41.718Z,64.10
2018-03-02T01:13:41.688Z,64.01
2018-03-02T01:14:41.656Z,64.01
2018-03-02T01:15:41.627Z,64.01
2018-03-02T01:16:41.598Z,64.10
2018-03-02T01:17:41.576Z,64.20
2018-03-02T01:18:41.544Z,64.29
2018-03-02T01:19:41.513Z,63.63
2018-03-02T01:20:41.486Z,64.01
2018-03-02T01:21:41.460Z,64.01
2018-03-02T01:22:41.436Z,64.01
2018-03-02T01:23:41.401Z,64.01
2018-03-02T01:24:41.377Z,64.01
2018-03-02T01:25:41.344Z,64.20
2018-03-02T01:26:41.326Z,64.01
2018-03-02T01:27:41.287Z,64.01
2018-03-02T01:28:41.269Z,64.39
2018-03-02T01:29:41.232Z,64.48
2018-03-02T01:30:41.206Z,64.67
2018-03-02T01:31:41.178Z,64.67
2018-03-02T01:32:41.146Z,65.05
2018-03-02T01:33:41.118Z,64.95
2018-03-02T01:34:41.090Z,64.48
2018-03-02T01:35:41.066Z,64.76
2018-03-02T01:36:41.034Z,65.42
2018-03-02T01:37:41.005Z,65.33
2018-03-02T01:38:40.975Z,65.42
2018-03-02T01:39:40.947Z,65.33
2018-03-02T01:40:40.924Z,65.52
2018-03-02T01:41:40.891Z,65.14
2018-03-02T01:42:40.861Z,65.52
2018-03-02T01:43:40.837Z,65.42
2018-03-02T01:44:40.808Z,65.14
2018-03-02T01:45:40.780Z,65.14
2018-03-02T01:46:40.747Z,65.52
2018-03-02T01:47:40.725Z,65.99
2018-03-02T01:48:40.692Z,65.61
2018-03-02T01:49:40.668Z,65.61
2018-03-02T01:50:40.637Z,65.89
2018-03-02T01:51:40.607Z,65.80
2018-03-02T01:52:40.581Z,65.70
2018-03-02T01:53:40.557Z,65.61
2018-03-02T01:54:40.526Z,65.80
2018-03-02T01:55:40.497Z,66.17
2018-03-02T01:56:40.470Z,66.08
2018-03-02T01:57:40.438Z,66.17
2018-03-02T01:58:40.414Z,66.17
2018-03-02T01:59:40.393Z,65.89
2018-03-02T02:00:40.363Z,65.99
2018-03-02T02:01:40.326Z,66.17
2018-03-02T02:02:40.298Z,65.99
2018-03-02T02:03:40.267Z,66.27
2018-03-02T02:04:40.238Z,66.27
2018-03-02T02:05:40.212Z,65.99
2018-03-02T02:06:40.182Z,65.89
2018-03-02T02:07:40.158Z,65.99
2018-03-02T02:08:40.127Z,65.89
2018-03-02T02:09:40.100Z,65.99
2018-03-02T02:10:40.069Z,65.99
2018-03-02T02:11:40.039Z,65.89
2018-03-02T02:12:40.019Z,66.08
2018-03-02T02:13:39.984Z,66.17
2018-03-02T02:14:39.958Z,66.27
2018-03-02T02:15:39.927Z,66.08
2018-03-02T02:16:39.897Z,66.17
2018-03-02T02:17:39.872Z,66.17
2018-03-02T02:18:39.841Z,66.27
2018-03-02T02:19:39.817Z,66.55
2018-03-02T02:20:39.789Z,66.55
2018-03-02T02:21:39.759Z,66.46
2018-03-02T02:22:39.726Z,66.83
2018-03-02T02:23:39.708Z,66.83
2018-03-02T02:24:39.675Z,66.83
2018-03-02T02:25:39.649Z,66.55
2018-03-02T02:26:39.624Z,66.93
2018-03-02T02:27:39.585Z,67.02
2018-03-02T02:28:39.557Z,67.30
2018-03-02T02:29:39.526Z,67.02
2018-03-02T02:30:39.499Z,67.12
2018-03-02T02:31:39.473Z,67.40
2018-03-02T02:32:39.444Z,67.59
2018-03-02T02:33:39.422Z,67.30
2018-03-02T02:34:39.388Z,67.30
2018-03-02T02:35:39.363Z,67.68
2018-03-02T02:36:39.331Z,67.30
2018-03-02T02:37:39.307Z,67.21
2018-03-02T02:38:39.277Z,67.21
2018-03-02T02:39:39.248Z,67.30
2018-03-02T02:40:39.224Z,67.68
2018-03-02T02:41:39.191Z,67.30
2018-03-02T02:42:39.168Z,67.30
2018-03-02T02:43:39.134Z,67.30
2018-03-02T02:44:39.110Z,67.59
2018-03-02T02:45:39.077Z,67.68
2018-03-02T02:46:39.047Z,68.15
2018-03-02T02:47:39.020Z,67.97
2018-03-02T02:48:38.995Z,67.78
2018-03-02T02:49:38.964Z,68.34
2018-03-02T02:50:38.933Z,68.25
2018-03-02T02:51:38.908Z,68.34
2018-03-02T02:52:38.877Z,68.06
2018-03-02T02:53:38.854Z,68.25
2018-03-02T02:54:38.817Z,68.72
2018-03-02T02:55:38.793Z,68.53
2018-03-02T02:56:38.767Z,68.34
2018-03-02T02:57:38.738Z,67.97
2018-03-02T02:58:38.705Z,68.44
2018-03-02T02:59:38.677Z,68.21
2018-03-02T03:00:38.647Z,68.40
2018-03-02T03:01:38.631Z,68.40
2018-03-02T03:02:38.595Z,68.72
2018-03-02T03:03:38.564Z,68.59
2018-03-02T03:04:38.540Z,68.63
2018-03-02T03:05:38.505Z,68.68
2018-03-02T03:06:38.474Z,68.59
2018-03-02T03:07:38.447Z,68.91
2018-03-02T03:08:38.421Z,68.72
2018-03-02T03:09:38.393Z,68.78
2018-03-02T03:10:38.360Z,68.72
2018-03-02T03:11:38.335Z,68.91
2018-03-02T03:12:38.308Z,68.59
2018-03-02T03:13:38.280Z,68.59
2018-03-02T03:14:38.253Z,68.50
2018-03-02T03:15:38.230Z,68.87
2018-03-02T03:16:38.194Z,69.63
2018-03-02T03:17:38.162Z,69.35
2018-03-02T03:18:38.142Z,69.35
2018-03-02T03:19:38.106Z,69.53
2018-03-02T03:20:38.077Z,69.44
2018-03-02T03:21:38.050Z,69.44
2018-03-02T03:22:38.025Z,69.44
2018-03-02T03:23:37.994Z,69.53
2018-03-02T03:24:37.962Z,69.06
2018-03-02T03:25:37.937Z,69.53
2018-03-02T03:26:37.913Z,69.44
2018-03-02T03:27:37.874Z,69.53
2018-03-02T03:28:37.846Z,69.53
2018-03-02T03:29:37.823Z,69.53
2018-03-02T03:30:37.799Z,69.53
2018-03-02T03:31:37.763Z,69.44
2018-03-02T03:32:37.739Z,69.82
2018-03-02T03:33:37.707Z,69.35
2018-03-02T03:34:37.676Z,69.82
2018-03-02T03:35:37.648Z,69.63
2018-03-02T03:36:37.621Z,69.35
2018-03-02T03:37:37.598Z,69.91
2018-03-02T03:38:37.565Z,69.63
2018-03-02T03:39:37.533Z,69.63
2018-03-02T03:40:37.517Z,70.01
2018-03-02T03:41:37.478Z,69.72
2018-03-02T03:42:37.447Z,70.01
2018-03-02T03:43:37.486Z,70.29
2018-03-02T03:44:37.390Z,70.29
2018-03-02T03:45:37.362Z,70.38
2018-03-02T03:46:37.331Z,70.29
2018-03-02T03:47:37.307Z,70.29
2018-03-02T03:48:37.281Z,70.29
2018-03-02T03:49:37.250Z,70.48
2018-03-02T03:50:37.215Z,70.29
2018-03-02T03:51:37.192Z,70.29
2018-03-02T03:52:37.173Z,70.29
2018-03-02T03:53:37.138Z,70.29
2018-03-02T03:54:37.103Z,70.38
2018-03-02T03:55:37.081Z,70.76
2018-03-02T03:56:37.048Z,70.67
2018-03-02T03:57:37.017Z,70.29
2018-03-02T03:58:36.992Z,70.29
2018-03-02T03:59:36.958Z,70.76
2018-03-02T04:00:36.940Z,70.76
2018-03-02T04:01:36.903Z,70.76
2018-03-02T04:02:36.872Z,70.76
2018-03-02T04:03:36.846Z,70.76
2018-03-02T04:04:36.818Z,70.95
2018-03-02T04:05:36.789Z,70.86
2018-03-02T04:06:36.762Z,70.76
2018-03-02T04:07:36.792Z,71.04
2018-03-02T04:08:36.705Z,71.14
2018-03-02T04:09:36.674Z,71.33
2018-03-02T04:10:36.649Z,71.04
2018-03-02T04:11:36.618Z,71.04
2018-03-02T04:12:36.589Z,71.14
2018-03-02T04:13:36.562Z,71.14
2018-03-02T04:14:36.527Z,70.95
2018-03-02T04:15:36.505Z,71.33
2018-03-02T04:16:36.475Z,71.33
2018-03-02T04:17:36.442Z,71.70
2018-03-02T04:18:36.425Z,71.42
2018-03-02T04:19:36.388Z,71.33
2018-03-02T04:20:36.359Z,71.61
2018-03-02T04:21:36.332Z,71.61
2018-03-02T04:22:36.300Z,71.33
2018-03-02T04:23:36.276Z,71.33
2018-03-02T04:24:36.243Z,71.70
2018-03-02T04:25:36.211Z,71.42
2018-03-02T04:26:36.186Z,71.98
2018-03-02T04:27:36.157Z,72.27
2018-03-02T04:28:36.132Z,72.17
2018-03-02T04:29:36.098Z,72.27
2018-03-02T04:30:36.071Z,72.08
2018-03-02T04:31:36.042Z,72.17
2018-03-02T04:32:36.025Z,71.98
2018-03-02T04:33:35.986Z,71.89
2018-03-02T04:34:35.956Z,71.98
2018-03-02T04:35:35.926Z,72.27
2018-03-02T04:36:35.897Z,72.08
2018-03-02T04:37:35.876Z,71.89
2018-03-02T04:38:35.839Z,72.08
2018-03-02T04:39:35.814Z,72.17
2018-03-02T04:40:35.782Z,71.89
2018-03-02T04:41:35.757Z,72.17
2018-03-02T04:42:35.727Z,71.98
2018-03-02T04:43:35.698Z,71.80
2018-03-02T04:44:35.667Z,71.89
2018-03-02T04:45:35.688Z,72.27
2018-03-02T04:46:35.619Z,72.08
2018-03-02T04:47:35.578Z,72.36
2018-03-02T04:48:35.552Z,72.36
2018-03-02T04:49:35.525Z,72.27
2018-03-02T04:50:35.495Z,72.08
2018-03-02T04:51:35.464Z,72.17
2018-03-02T04:52:35.440Z,72.08
2018-03-02T04:53:35.407Z,72.27
2018-03-02T04:54:35.384Z,72.17
2018-03-02T04:55:35.351Z,72.08
2018-03-02T04:56:35.321Z,72.17
2018-03-02T04:57:35.296Z,72.17
2018-03-02T04:58:35.268Z,72.74
2018-03-02T04:59:35.232Z,72.64
2018-03-02T05:00:35.211Z,72.74
2018-03-02T05:01:35.177Z,72.74
2018-03-02T05:02:35.145Z,72.55
2018-03-02T05:03:35.121Z,72.36
2018-03-02T05:04:35.090Z,72.55
2018-03-02T05:05:35.061Z,72.92
2018-03-02T05:06:35.037Z,72.92
2018-03-02T05:07:35.003Z,72.55
2018-03-02T05:08:34.976Z,72.55
2018-03-02T05:09:34.950Z,72.27
2018-03-02T05:10:34.917Z,72.83
2018-03-02T05:11:34.890Z,72.83
2018-03-02T05:12:34.861Z,72.74
2018-03-02T05:13:34.835Z,72.55
2018-03-02T05:14:34.799Z,72.64
2018-03-02T05:15:34.819Z,72.36
2018-03-02T05:16:34.745Z,72.92
2018-03-02T05:17:34.715Z,72.83
2018-03-02T05:18:34.685Z,72.55
2018-03-02T05:19:34.658Z,72.74
2018-03-02T05:20:34.626Z,72.55
2018-03-02T05:21:34.603Z,72.55
2018-03-02T05:22:34.572Z,72.55
2018-03-02T05:23:34.551Z,73.02
2018-03-02T05:24:34.522Z,72.92
2018-03-02T05:25:34.482Z,73.21
2018-03-02T05:26:34.453Z,73.58
2018-03-02T05:27:34.428Z,73.21
2018-03-02T05:28:34.398Z,73.11
2018-03-02T05:29:34.367Z,73.30
2018-03-02T05:30:34.339Z,73.49
2018-03-02T05:31:34.362Z,73.49
2018-03-02T05:32:34.278Z,73.49
2018-03-02T05:33:34.251Z,73.58
2018-03-02T05:34:34.228Z,73.77
2018-03-02T05:35:34.194Z,73.77
2018-03-02T05:36:34.170Z,73.77
2018-03-02T05:37:34.138Z,73.77
2018-03-02T05:38:34.102Z,73.77
2018-03-02T05:39:34.078Z,73.68
2018-03-02T05:40:34.049Z,73.49
2018-03-02T05:41:34.017Z,73.77
2018-03-02T05:42:33.987Z,73.96
2018-03-02T05:43:33.971Z,73.39
2018-03-02T05:44:33.931Z,73.77
2018-03-02T05:45:33.904Z,73.77
2018-03-02T05:46:33.872Z,73.58
2018-03-02T05:47:33.842Z,73.68
2018-03-02T05:48:33.812Z,73.49
2018-03-02T05:49:33.784Z,74.24
2018-03-02T05:50:33.759Z,73.77
2018-03-02T05:51:33.726Z,74.05
2018-03-02T05:52:33.701Z,73.96
2018-03-02T05:53:33.671Z,73.96
2018-03-02T05:54:33.637Z,73.77
2018-03-02T05:55:33.611Z,73.49
2018-03-02T05:56:33.583Z,73.49
2018-03-02T05:57:33.560Z,73.30
2018-03-02T05:58:33.520Z,73.49
2018-03-02T05:59:33.490Z,73.39
2018-03-02T06:00:33.464Z,74.24
2018-03-02T06:01:33.436Z,74.15
2018-03-02T06:02:33.404Z,74.24
2018-03-02T06:03:33.379Z,73.68
2018-03-02T06:04:33.348Z,73.87
2018-03-02T06:05:33.316Z,74.24
2018-03-02T06:06:33.287Z,74.05
2018-03-02T06:07:33.308Z,73.96
2018-03-02T06:08:33.236Z,74.34
2018-03-02T06:09:33.207Z,74.05
2018-03-02T06:10:33.177Z,74.05
2018-03-02T06:11:33.148Z,74.05
2018-03-02T06:12:33.117Z,74.05
2018-03-02T06:13:33.084Z,74.15
2018-03-02T06:14:33.052Z,74.05
2018-03-02T06:15:33.027Z,74.05
2018-03-02T06:16:32.998Z,74.05
2018-03-02T06:17:32.971Z,74.24
2018-03-02T06:18:32.937Z,74.05
2018-03-02T06:19:32.911Z,74.15
2018-03-02T06:20:32.882Z,74.24
2018-03-02T06:21:32.855Z,74.24
2018-03-02T06:22:32.820Z,74.15
2018-03-02T06:23:32.798Z,74.05
2018-03-02T06:24:32.768Z,74.05
2018-03-02T06:25:32.736Z,74.24
2018-03-02T06:26:32.707Z,74.05
2018-03-02T06:27:32.678Z,74.62
2018-03-02T06:28:32.649Z,74.05
2018-03-02T06:29:32.618Z,73.96
2018-03-02T06:30:32.586Z,74.05
2018-03-02T06:31:32.559Z,74.15
2018-03-02T06:32:32.538Z,74.24
2018-03-02T06:33:32.504Z,74.15
2018-03-02T06:34:32.481Z,74.05
2018-03-02T06:35:32.447Z,74.15
2018-03-02T06:36:32.415Z,74.43
2018-03-02T06:37:32.389Z,74.81
2018-03-02T06:38:32.357Z,74.43
2018-03-02T06:39:32.336Z,73.96
2018-03-02T06:40:32.298Z,74.05
2018-03-02T06:41:32.268Z,73.96
2018-03-02T06:42:32.242Z,74.43
2018-03-02T06:43:32.210Z,74.05
2018-03-02T06:44:32.189Z,74.15
2018-03-02T06:45:32.159Z,74.15
2018-03-02T06:46:32.126Z,74.43
2018-03-02T06:47:32.106Z,74.53
2018-03-02T06:48:32.067Z,74.62
2018-03-02T06:49:32.041Z,75.00
2018-03-02T06:50:32.010Z,74.81
2018-03-02T06:51:31.977Z,74.71
2018-03-02T06:52:31.951Z,74.71
2018-03-02T06:53:31.923Z,75.00
2018-03-02T06:54:31.894Z,74.62
2018-03-02T06:55:31.860Z,75.00
2018-03-02T06:56:31.837Z,74.81
2018-03-02T06:57:31.804Z,74.81
2018-03-02T06:58:31.776Z,74.81
2018-03-02T06:59:31.764Z,74.81
2018-03-02T07:00:31.717Z,74.90
2018-03-02T07:01:31.688Z,74.43
2018-03-02T07:02:31.658Z,74.71
2018-03-02T07:03:31.634Z,74.81
2018-03-02T07:04:31.596Z,74.34
2018-03-02T07:05:31.574Z,73.96
2018-03-02T07:06:31.542Z,74.05
2018-03-02T07:07:31.524Z,74.15
2018-03-02T07:08:31.485Z,74.34
2018-03-02T07:09:31.455Z,74.34
2018-03-02T07:10:31.427Z,73.96
2018-03-02T07:11:31.401Z,74.62
2018-03-02T07:12:31.370Z,74.53
2018-03-02T07:13:31.337Z,74.24
2018-03-02T07:14:31.308Z,74.34
2018-03-02T07:15:31.278Z,74.34
2018-03-02T07:16:31.247Z,74.34
2018-03-02T07:17:31.220Z,74.34
2018-03-02T07:18:31.192Z,74.43
2018-03-02T07:19:31.158Z,74.15
2018-03-02T07:20:31.136Z,74.24
2018-03-02T07:21:31.137Z,74.34
2018-03-02T07:22:31.072Z,74.24
2018-03-02T07:23:31.045Z,74.24
2018-03-02T07:24:31.016Z,74.24
2018-03-02T07:25:30.984Z,74.43
2018-03-02T07:26:30.957Z,74.34
2018-03-02T07:27:30.935Z,74.15
2018-03-02T07:28:30.902Z,74.34
2018-03-02T07:29:30.870Z,74.15
2018-03-02T07:30:30.836Z,73.96
2018-03-02T07:31:30.811Z,73.49
2018-03-02T07:32:30.778Z,73.49
2018-03-02T07:33:30.749Z,74.15
2018-03-02T07:34:30.722Z,74.15
2018-03-02T07:35:30.695Z,73.87
2018-03-02T07:36:30.664Z,74.05
2018-03-02T07:37:30.634Z,73.68
2018-03-02T07:38:30.612Z,73.49
2018-03-02T07:39:30.581Z,73.87
2018-03-02T07:40:30.555Z,73.49
2018-03-02T07:41:30.520Z,73.49
2018-03-02T07:42:30.487Z,73.49
2018-03-02T07:43:30.457Z,72.92
2018-03-02T07:44:30.434Z,73.49
2018-03-02T07:45:30.404Z,73.30
2018-03-02T07:46:30.371Z,73.30
2018-03-02T07:47:30.344Z,73.30
2018-03-02T07:48:30.316Z,73.30
2018-03-02T07:49:30.283Z,73.49
2018-03-02T07:50:30.257Z,73.68
2018-03-02T07:51:30.228Z,72.92
2018-03-02T07:52:30.195Z,72.45
2018-03-02T07:53:30.170Z,72.74
2018-03-02T07:54:30.137Z,73.02
2018-03-02T07:55:30.106Z,72.74
2018-03-02T07:56:30.085Z,72.74
2018-03-02T07:57:30.074Z,72.36
2018-03-02T07:58:30.025Z,72.64
2018-03-02T07:59:29.995Z,72.83
2018-03-02T08:00:29.964Z,72.83
2018-03-02T08:01:29.937Z,72.55
2018-03-02T08:02:29.907Z,72.45
2018-03-02T08:03:29.878Z,72.45
2018-03-02T08:04:29.863Z,72.17
2018-03-02T08:05:29.822Z,71.70
2018-03-02T08:06:29.790Z,72.08
2018-03-02T08:07:29.768Z,72.17
2018-03-02T08:08:29.737Z,71.89
2018-03-02T08:09:29.704Z,71.61
2018-03-02T08:10:29.678Z,71.70
2018-03-02T08:11:29.648Z,71.51
2018-03-02T08:12:29.620Z,71.42
2018-03-02T08:13:29.587Z,71.51
2018-03-02T08:14:29.569Z,71.61
2018-03-02T08:15:29.537Z,71.51
2018-03-02T08:16:29.504Z,71.61
2018-03-02T08:17:29.477Z,71.61
2018-03-02T08:18:29.454Z,71.70
2018-03-02T08:19:29.416Z,71.33
2018-03-02T08:20:29.433Z,71.51
2018-03-02T08:21:29.360Z,71.51
2018-03-02T08:22:29.327Z,71.51
2018-03-02T08:23:29.298Z,71.23
2018-03-02T08:24:29.273Z,70.95
2018-03-02T08:25:29.239Z,70.61
2018-03-02T08:26:29.208Z,70.32
2018-03-02T08:27:29.182Z,70.51
2018-03-02T08:28:29.154Z,70.04
2018-03-02T08:29:29.132Z,70.23
2018-03-02T08:30:29.099Z,69.95
2018-03-02T08:31:29.066Z,69.85
2018-03-02T08:32:29.049Z,69.76
2018-03-02T08:33:29.012Z,70.32
2018-03-02T08:34:28.982Z,69.76
2018-03-02T08:35:28.954Z,70.04
2018-03-02T08:36:28.934Z,69.38
2018-03-02T08:37:28.912Z,69.48
2018-03-02T08:38:28.870Z,69.48
2018-03-02T08:39:28.835Z,69.38
2018-03-02T08:40:28.809Z,69.48
2018-03-02T08:41:28.781Z,69.38
2018-03-02T08:42:28.748Z,69.67
2018-03-02T08:43:28.723Z,69.38
2018-03-02T08:44:28.692Z,68.82
2018-03-02T08:45:28.667Z,68.44
2018-03-02T08:46:28.638Z,69.00
2018-03-02T08:47:28.610Z,68.72
2018-03-02T08:48:28.577Z,68.44
2018-03-02T08:49:28.546Z,68.72
2018-03-02T08:50:28.536Z,68.53
2018-03-02T08:51:28.507Z,68.44
2018-03-02T08:52:28.464Z,68.25
2018-03-02T08:53:28.441Z,67.97
2018-03-02T08:54:28.406Z,68.15
2018-03-02T08:55:28.380Z,67.97
2018-03-02T08:56:28.352Z,67.59
2018-03-02T08:57:28.320Z,67.40
2018-03-02T08:58:28.293Z,67.49
2018-03-02T08:59:28.262Z,67.49
2018-03-02T09:00:28.231Z,67.40
2018-03-02T09:01:28.211Z,67.30
2018-03-02T09:02:28.175Z,67.97
2018-03-02T09:03:28.148Z,67.40
2018-03-02T09:04:28.117Z,67.30
2018-03-02T09:05:28.090Z,67.21
2018-03-02T09:06:28.064Z,67.40
2018-03-02T09:07:28.032Z,67.30
2018-03-02T09:08:28.010Z,67.12
2018-03-02T09:09:27.979Z,67.12
2018-03-02T09:10:27.948Z,66.74
2018-03-02T09:11:27.919Z,66.64
2018-03-02T09:12:27.887Z,66.83
2018-03-02T09:13:27.861Z,66.64
2018-03-02T09:14:27.835Z,66.08
2018-03-02T09:15:27.808Z,66.08
2018-03-02T09:16:27.783Z,65.89
2018-03-02T09:17:27.746Z,66.08
2018-03-02T09:18:27.723Z,66.27
2018-03-02T09:19:27.693Z,65.99
2018-03-02T09:20:27.666Z,65.61
2018-03-02T09:21:27.637Z,65.23
2018-03-02T09:22:27.610Z,65.23
2018-03-02T09:23:27.578Z,64.95
2018-03-02T09:24:27.560Z,65.23
2018-03-02T09:25:27.525Z,65.17
2018-03-02T09:26:27.492Z,64.61
2018-03-02T09:27:27.479Z,64.61
2018-03-02T09:28:27.436Z,64.70
2018-03-02T09:29:27.410Z,64.61
2018-03-02T09:30:27.381Z,64.98
2018-03-02T09:31:27.354Z,64.32
2018-03-02T09:32:27.328Z,64.04
2018-03-02T09:33:27.298Z,63.95
2018-03-02T09:34:27.284Z,63.57
2018-03-02T09:35:27.238Z,63.66
2018-03-02T09:36:27.207Z,63.85
2018-03-02T09:37:27.183Z,63.29
2018-03-02T09:38:27.150Z,63.10
2018-03-02T09:39:27.126Z,63.19
2018-03-02T09:40:27.106Z,63.29
2018-03-02T09:41:27.070Z,63.29
2018-03-02T09:42:27.043Z,63.19
2018-03-02T09:43:27.016Z,63.00
2018-03-02T09:44:26.986Z,62.62
2018-03-02T09:45:26.958Z,63.00
2018-03-02T09:46:26.934Z,62.62
2018-03-02T09:47:26.902Z,62.25
2018-03-02T09:48:26.870Z,62.25
2018-03-02T09:49:26.845Z,62.25
2018-03-02T09:50:26.813Z,62.15
2018-03-02T09:51:26.787Z,62.34
2018-03-02T09:52:26.761Z,62.53
2018-03-02T09:53:26.736Z,62.25
2018-03-02T09:54:26.704Z,62.62
2018-03-02T09:55:26.676Z,62.34
2018-03-02T09:56:26.647Z,62.34
2018-03-02T09:57:26.617Z,61.87
2018-03-02T09:58:26.591Z,62.15
2018-03-02T09:59:26.565Z,61.68
2018-03-02T10:00:26.535Z,61.49
2018-03-02T10:01:26.504Z,61.49
2018-03-02T10:02:26.477Z,61.40
2018-03-02T10:03:26.449Z,61.30
2018-03-02T10:04:26.425Z,60.93
2018-03-02T10:05:26.400Z,60.39
2018-03-02T10:06:26.378Z,59.92
2018-03-02T10:07:26.339Z,59.92
2018-03-02T10:08:26.313Z,59.73
2018-03-02T10:09:26.325Z,59.35
2018-03-02T10:10:26.255Z,59.35
2018-03-02T10:11:26.230Z,59.54
2018-03-02T10:12:26.202Z,59.17
2018-03-02T10:13:26.203Z,58.69
2018-03-02T10:14:26.149Z,58.69
2018-03-02T10:15:26.115Z,58.41
2018-03-02T10:16:26.099Z,58.50
2018-03-02T10:17:26.069Z,58.12
2018-03-02T10:18:26.036Z,58.22
2018-03-02T10:19:26.010Z,58.03
2018-03-02T10:20:25.975Z,57.75
2018-03-02T10:21:25.959Z,57.75
2018-03-02T10:22:25.931Z,57.84
2018-03-02T10:23:25.901Z,57.84
2018-03-02T10:24:25.867Z,57.56
2018-03-02T10:25:25.845Z,57.65
2018-03-02T10:26:25.812Z,57.46
2018-03-02T10:27:25.791Z,57.46
2018-03-02T10:28:25.768Z,57.65
2018-03-02T10:29:25.735Z,57.09
2018-03-02T10:30:25.702Z,57.09
2018-03-02T10:31:25.684Z,56.52
2018-03-02T10:32:25.648Z,56.34
2018-03-02T10:33:25.622Z,56.15
2018-03-02T10:34:25.602Z,56.05
2018-03-02T10:35:25.568Z,56.43
2018-03-02T10:36:25.535Z,56.24
2018-03-02T10:37:25.514Z,56.15
2018-03-02T10:38:25.487Z,56.05
2018-03-02T10:39:25.458Z,55.86
2018-03-02T10:40:25.429Z,55.77
2018-03-02T10:41:25.399Z,55.77
2018-03-02T10:42:25.374Z,56.05
2018-03-02T10:43:25.348Z,55.86
2018-03-02T10:44:25.333Z,55.77
2018-03-02T10:45:25.300Z,55.96
2018-03-02T10:46:25.263Z,55.30
2018-03-02T10:47:25.237Z,55.20
2018-03-02T10:48:25.219Z,55.11
2018-03-02T10:49:25.194Z,55.01
2018-03-02T10:50:25.153Z,55.58
2018-03-02T10:51:25.127Z,55.77
2018-03-02T10:52:25.098Z,55.67
2018-03-02T10:53:25.072Z,55.61
2018-03-02T10:54:25.048Z,55.32
2018-03-02T10:55:25.028Z,55.11
2018-03-02T10:56:24.994Z,54.92
2018-03-02T10:57:24.976Z,55.01
2018-03-02T10:58:24.940Z,55.49
2018-03-02T10:59:24.918Z,55.51
2018-03-02T11:00:24.883Z,55.04
2018-03-02T11:01:24.858Z,54.85
2018-03-02T11:02:24.828Z,54.66
2018-03-02T11:03:24.803Z,54.85
2018-03-02T11:04:24.789Z,54.66
2018-03-02T11:05:24.748Z,54.38
2018-03-02T11:06:24.717Z,54.38
2018-03-02T11:07:24.693Z,53.81
2018-03-02T11:08:24.671Z,53.91
2018-03-02T11:09:24.649Z,53.91
2018-03-02T11:10:24.620Z,53.63
2018-03-02T11:11:24.588Z,53.72
2018-03-02T11:12:24.560Z,53.91
2018-03-02T11:13:24.535Z,54.00
2018-03-02T11:14:24.507Z,53.91
2018-03-02T11:15:24.480Z,54.00
2018-03-02T11:16:24.447Z,53.91
2018-03-02T11:17:24.423Z,53.63
2018-03-02T11:18:24.398Z,54.10
2018-03-02T11:19:24.372Z,53.91
2018-03-02T11:20:24.341Z,53.63
2018-03-02T11:21:24.316Z,53.91
2018-03-02T11:22:24.286Z,53.53
2018-03-02T11:23:24.268Z,53.25
2018-03-02T11:24:24.237Z,53.81
2018-03-02T11:25:24.207Z,53.15
2018-03-02T11:26:24.181Z,53.06
2018-03-02T11:27:24.150Z,53.63
2018-03-02T11:28:24.132Z,53.53
2018-03-02T11:29:24.100Z,53.34
2018-03-02T11:30:24.072Z,52.96
2018-03-02T11:31:24.046Z,53.06
2018-03-02T11:32:24.020Z,53.25
2018-03-02T11:33:23.992Z,53.06
2018-03-02T11:34:23.988Z,52.68
2018-03-02T11:35:23.939Z,52.68
2018-03-02T11:36:23.911Z,52.59
2018-03-02T11:37:23.888Z,52.96
2018-03-02T11:38:23.858Z,53.15
2018-03-02T11:39:23.836Z,52.96
2018-03-02T11:40:23.806Z,53.15
2018-03-02T11:41:23.776Z,52.78
2018-03-02T11:42:23.752Z,53.15
2018-03-02T11:43:23.723Z,52.96
2018-03-02T11:44:23.699Z,52.96
2018-03-02T11:45:23.674Z,53.25
2018-03-02T11:46:23.642Z,53.25
2018-03-02T11:47:23.617Z,53.15
2018-03-02T11:48:23.599Z,52.96
2018-03-02T11:49:23.569Z,53.06
2018-03-02T11:50:23.540Z,53.15
2018-03-02T11:51:23.517Z,52.59
2018-03-02T11:52:23.490Z,52.30
2018-03-02T11:53:23.458Z,52.49
2018-03-02T11:54:23.437Z,52.68
2018-03-02T11:55:23.412Z,52.68
2018-03-02T11:56:23.377Z,52.59
2018-03-02T11:57:23.360Z,52.59
2018-03-02T11:58:23.326Z,52.30
2018-03-02T11:59:23.299Z,52.49
2018-03-02T12:00:23.275Z,52.59
2018-03-02T12:01:23.249Z,52.40
2018-03-02T12:02:23.217Z,52.40
2018-03-02T12:03:23.208Z,52.30
2018-03-02T12:04:23.165Z,52.40
2018-03-02T12:05:23.141Z,52.30
2018-03-02T12:06:23.117Z,52.49
2018-03-02T12:07:23.086Z,53.15
2018-03-02T12:08:23.059Z,53.06
2018-03-02T12:09:23.034Z,53.06
2018-03-02T12:10:23.005Z,53.34
2018-03-02T12:11:22.983Z,52.59
2018-03-02T12:12:22.959Z,52.68
2018-03-02T12:13:22.927Z,52.59
2018-03-02T12:14:22.904Z,52.59
2018-03-02T12:15:22.878Z,53.06
2018-03-02T12:16:22.854Z,52.49
2018-03-02T12:17:22.826Z,52.40
2018-03-02T12:18:22.796Z,52.49
2018-03-02T12:19:22.768Z,52.40
2018-03-02T12:20:22.751Z,52.49
2018-03-02T12:21:22.719Z,52.30
2018-03-02T12:22:22.695Z,52.30
2018-03-02T12:23:22.663Z,52.49
2018-03-02T12:24:22.636Z,52.40
2018-03-02T12:25:22.612Z,51.54
2018-03-02T12:26:22.587Z,51.64
2018-03-02T12:27:22.559Z,51.64
2018-03-02T12:28:22.548Z,52.04
2018-03-02T12:29:22.518Z,51.48
2018-03-02T12:30:22.478Z,51.57
2018-03-02T12:31:22.451Z,51.48
2018-03-02T12:32:22.429Z,51.57
2018-03-02T12:33:22.420Z,51.29
2018-03-02T12:34:22.373Z,51.39
2018-03-02T12:35:22.345Z,50.91
2018-03-02T12:36:22.317Z,51.20
2018-03-02T12:37:22.298Z,51.01
2018-03-02T12:38:22.269Z,51.29
2018-03-02T12:39:22.237Z,51.10
2018-03-02T12:40:22.218Z,51.01
2018-03-02T12:41:22.188Z,51.01
2018-03-02T12:42:22.158Z,51.29
2018-03-02T12:43:22.136Z,51.10
2018-03-02T12:44:22.110Z,50.35
2018-03-02T12:45:22.091Z,50.35
2018-03-02T12:46:22.055Z,50.53
2018-03-02T12:47:22.036Z,50.63
2018-03-02T12:48:22.003Z,50.82
2018-03-02T12:49:21.976Z,50.63
2018-03-02T12:50:21.957Z,50.63
2018-03-02T12:51:21.926Z,50.44
2018-03-02T12:52:21.896Z,50.44